createdAt,value
2023-03-18T00:03:38.793Z,45.20
2023-03-18T00:08:42.919Z,45.10
2023-03-18T00:13:48.082Z,45.20
2023-03-18T00:18:51.859Z,45.20
2023-03-18T00:23:56.657Z,45.30
2023-03-18T00:29:01.431Z,45.20
2023-03-18T00:34:04.914Z,45.30
2023-03-18T00:39:09.488Z,45.30
2023-03-18T00:44:15.717Z,45.40
2023-03-18T00:49:19.950Z,45.40
2023-03-18T00:54:24.971Z,45.40
2023-03-18T00:59:29.763Z,45.50
2023-03-18T01:04:33.788Z,45.50
2023-03-18T01:09:37.320Z,45.60
2023-03-18T01:14:42.122Z,45.70
2023-03-18T01:19:45.475Z,45.70
2023-03-18T01:24:49.257Z,45.80
2023-03-18T01:29:56.527Z,45.80
2023-03-18T01:35:00.976Z,45.90
2023-03-18T01:40:05.380Z,45.80
2023-03-18T01:45:19.531Z,45.90
2023-03-18T01:50:29.410Z,46.10
2023-03-18T01:55:34.135Z,46.10
2023-03-18T02:00:43.131Z,46.00
2023-03-18T02:05:46.953Z,46.20
2023-03-18T02:10:51.687Z,46.10
2023-03-18T02:16:03.430Z,46.20
2023-03-18T02:21:21.827Z,46.30
2023-03-18T02:26:34.913Z,46.30
2023-03-18T02:31:43.737Z,46.30
2023-03-18T02:36:47.911Z,46.30
2023-03-18T02:41:51.548Z,46.30
2023-03-18T02:47:00.283Z,46.40
2023-03-18T02:52:03.640Z,46.60
2023-03-18T02:57:07.529Z,46.50
2023-03-18T03:02:13.313Z,46.60
2023-03-18T03:07:16.797Z,46.70
2023-03-18T03:12:24.775Z,46.60
2023-03-18T03:17:33.886Z,46.60
2023-03-18T03:22:37.440Z,46.70
2023-03-18T03:27:41.235Z,46.80
2023-03-18T03:32:46.668Z,46.90
2023-03-18T03:37:50.177Z,46.90
2023-03-18T03:42:53.636Z,46.90
2023-03-18T03:47:58.416Z,46.90
2023-03-18T03:53:04.198Z,47.00
2023-03-18T03:58:07.946Z,47.00
2023-03-18T04:03:13.536Z,47.00
2023-03-18T04:08:18.562Z,47.10
2023-03-18T04:13:21.901Z,47.90
2023-03-18T04:18:27.260Z,47.10
2023-03-18T04:23:33.187Z,47.20
2023-03-18T04:28:36.751Z,47.20
2023-03-18T04:33:44.871Z,47.20
2023-03-18T04:38:48.598Z,47.30
2023-03-18T04:43:52.371Z,47.30
2023-03-18T04:48:58.464Z,47.30
2023-03-18T04:54:02.474Z,47.50
2023-03-18T04:59:08.255Z,47.40
2023-03-18T05:04:13.691Z,47.40
2023-03-18T05:09:24.146Z,47.60
2023-03-18T05:14:29.132Z,47.50
2023-03-18T05:19:34.792Z,47.50
2023-03-18T05:24:47.270Z,47.70
2023-03-18T05:29:51.846Z,47.70
2023-03-18T05:35:02.199Z,47.70
2023-03-18T05:40:11.666Z,47.80
2023-03-18T05:45:17.710Z,47.90
2023-03-18T05:50:34.074Z,47.80
2023-03-18T05:55:41.479Z,48.00
2023-03-18T06:00:45.819Z,48.00
2023-03-18T06:05:50.929Z,48.00
2023-03-18T06:10:54.423Z,48.20
2023-03-18T06:15:59.101Z,48.20
2023-03-18T06:21:09.159Z,48.20
2023-03-18T06:26:13.241Z,48.30
2023-03-18T06:31:23.416Z,48.30
2023-03-18T06:36:28.530Z,48.20
2023-03-18T06:41:31.913Z,48.30
2023-03-18T06:46:47.774Z,48.30
2023-03-18T06:51:54.536Z,48.30
2023-03-18T06:56:58.236Z,48.30
2023-03-18T07:02:02.236Z,48.20
2023-03-18T07:07:09.566Z,48.20
2023-03-18T07:12:15.108Z,48.30
2023-03-18T07:17:19.933Z,48.30
2023-03-18T07:22:24.813Z,48.20
2023-03-18T07:27:29.015Z,48.30
2023-03-18T07:32:32.556Z,48.30
2023-03-18T07:37:40.845Z,48.30
2023-03-18T07:42:44.501Z,48.40
2023-03-18T07:47:48.312Z,48.40
2023-03-18T07:52:53.260Z,48.50
2023-03-18T07:57:56.613Z,49.20
2023-03-18T08:03:00.534Z,49.60
2023-03-18T08:08:05.537Z,49.40
2023-03-18T08:13:09.252Z,49.00
2023-03-18T08:18:12.649Z,48.90
2023-03-18T08:23:17.664Z,48.80
2023-03-18T08:28:21.362Z,48.70
2023-03-18T08:33:25.154Z,48.60
2023-03-18T08:38:30.000Z,48.50
2023-03-18T08:43:33.275Z,48.30
2023-03-18T08:48:36.750Z,48.20
2023-03-18T08:53:41.485Z,48.10
2023-03-18T08:58:46.148Z,48.00
2023-03-18T09:03:49.837Z,48.00
2023-03-18T09:08:54.602Z,53.80
2023-03-18T09:13:57.906Z,56.80
2023-03-18T09:19:01.493Z,54.10
2023-03-18T09:24:07.592Z,51.70
2023-03-18T09:29:11.342Z,49.80
2023-03-18T09:34:14.709Z,48.90
2023-03-18T09:39:20.222Z,52.00
2023-03-18T09:44:26.607Z,50.10
2023-03-18T09:49:44.057Z,48.80
2023-03-18T09:54:55.394Z,47.20
2023-03-18T10:00:09.254Z,46.90
2023-03-18T10:05:18.933Z,46.40
2023-03-18T10:10:30.667Z,46.20
2023-03-18T10:15:38.227Z,45.70
2023-03-18T10:20:53.876Z,46.00
2023-03-18T10:26:06.020Z,45.60
2023-03-18T10:31:25.598Z,45.60
2023-03-18T10:36:33.240Z,50.70
2023-03-18T10:41:39.648Z,50.70
2023-03-18T10:46:45.045Z,50.80
2023-03-18T10:51:54.824Z,50.60
2023-03-18T10:56:59.839Z,50.10
2023-03-18T11:02:07.591Z,49.30
2023-03-18T11:07:18.800Z,48.60
2023-03-18T11:12:28.562Z,48.00
2023-03-18T11:17:35.618Z,46.00
2023-03-18T11:22:45.833Z,45.20
2023-03-18T11:27:52.346Z,45.20
2023-03-18T11:32:58.879Z,46.00
2023-03-18T11:38:05.306Z,45.40
2023-03-18T11:43:19.957Z,45.90
2023-03-18T11:48:36.697Z,46.10
2023-03-18T11:54:00.290Z,43.10
2023-03-18T11:59:23.356Z,42.40
2023-03-18T12:04:46.135Z,41.00
2023-03-18T12:10:03.904Z,45.20
2023-03-18T12:15:23.398Z,44.60
2023-03-18T12:20:51.217Z,43.90
2023-03-18T12:26:11.112Z,43.80
2023-03-18T12:31:37.051Z,41.80
2023-03-18T12:36:56.928Z,40.60
2023-03-18T12:42:09.243Z,40.70
2023-03-18T12:47:19.189Z,40.00
2023-03-18T12:52:30.281Z,39.50
2023-03-18T12:57:39.790Z,39.30
2023-03-18T13:02:50.930Z,39.40
2023-03-18T13:08:12.133Z,38.90
2023-03-18T13:13:16.397Z,38.70
2023-03-18T13:18:28.227Z,39.20
2023-03-18T13:24:05.290Z,38.70
2023-03-18T13:29:19.583Z,37.80
2023-03-18T13:34:56.483Z,37.90
2023-03-18T13:40:34.162Z,37.50
2023-03-18T13:45:41.397Z,37.20
2023-03-18T13:50:48.425Z,37.80
2023-03-18T13:56:01.482Z,37.50
2023-03-18T14:01:33.550Z,37.50
2023-03-18T14:06:56.627Z,37.20
2023-03-18T14:12:17.074Z,37.10
2023-03-18T14:17:28.069Z,37.60
2023-03-18T14:22:36.904Z,37.80
2023-03-18T14:27:48.689Z,37.70
2023-03-18T14:32:59.720Z,37.60
2023-03-18T14:38:10.951Z,37.70
2023-03-18T14:43:21.362Z,38.00
2023-03-18T14:48:29.404Z,38.10
2023-03-18T14:53:36.734Z,38.50
2023-03-18T14:58:40.133Z,38.50
2023-03-18T15:03:46.814Z,38.80
2023-03-18T15:08:54.501Z,38.90
2023-03-18T15:13:59.990Z,39.00
2023-03-18T15:19:05.306Z,39.10
2023-03-18T15:24:10.761Z,39.30
2023-03-18T15:29:29.609Z,39.40
2023-03-18T15:34:33.947Z,39.30
2023-03-18T15:39:41.024Z,39.70
2023-03-18T15:44:46.598Z,39.80
2023-03-18T15:49:57.025Z,39.90
2023-03-18T15:55:02.592Z,40.20
2023-03-18T16:00:08.837Z,40.20
2023-03-18T16:05:19.425Z,40.40
2023-03-18T16:10:26.402Z,46.30
2023-03-18T16:15:31.987Z,47.40
2023-03-18T16:20:36.204Z,43.90
2023-03-18T16:25:42.152Z,42.80
2023-03-18T16:30:46.506Z,41.90
2023-03-18T16:35:56.814Z,41.40
2023-03-18T16:41:02.143Z,40.90
2023-03-18T16:46:06.181Z,40.70
2023-03-18T16:51:09.773Z,40.70
2023-03-18T16:56:19.173Z,40.60
2023-03-18T17:01:25.040Z,40.40
2023-03-18T17:06:29.607Z,44.30
2023-03-18T17:11:36.282Z,42.70
2023-03-18T17:16:43.742Z,41.90
2023-03-18T17:21:48.661Z,41.60
2023-03-18T17:26:55.994Z,41.50
2023-03-18T17:32:00.368Z,41.40
2023-03-18T17:37:05.969Z,41.40
2023-03-18T17:42:29.797Z,41.30
2023-03-18T17:47:40.344Z,41.20
2023-03-18T17:52:56.218Z,41.30
2023-03-18T17:58:04.933Z,41.40
2023-03-18T18:03:21.162Z,42.20
2023-03-18T18:08:31.294Z,42.00
2023-03-18T18:13:38.732Z,41.90
2023-03-18T18:18:43.194Z,41.80
2023-03-18T18:23:48.067Z,41.70
2023-03-18T18:28:57.680Z,41.60
2023-03-18T18:34:02.181Z,41.70
2023-03-18T18:39:07.720Z,41.80
2023-03-18T18:44:18.633Z,41.80
2023-03-18T18:49:28.874Z,41.80
2023-03-18T18:54:36.626Z,41.90
2023-03-18T18:59:43.177Z,42.10
2023-03-18T19:04:50.839Z,42.10
2023-03-18T19:09:57.898Z,42.10
2023-03-18T19:15:09.714Z,42.20
2023-03-18T19:20:29.948Z,42.20
2023-03-18T19:25:35.747Z,42.20
2023-03-18T19:30:47.455Z,42.90
2023-03-18T19:35:53.909Z,42.20
2023-03-18T19:41:03.480Z,42.40
2023-03-18T19:46:17.066Z,42.40
2023-03-18T19:51:24.424Z,42.20
2023-03-18T19:56:34.324Z,42.30
2023-03-18T20:01:44.579Z,42.40
2023-03-18T20:06:53.330Z,42.30
2023-03-18T20:12:06.132Z,42.40
2023-03-18T20:17:35.824Z,42.40
2023-03-18T20:22:53.577Z,42.40
2023-03-18T20:27:59.771Z,42.50
2023-03-18T20:33:08.266Z,42.60
2023-03-18T20:38:22.120Z,42.60
2023-03-18T20:43:28.873Z,42.60
2023-03-18T20:48:38.288Z,42.70
2023-03-18T20:53:43.822Z,42.80
2023-03-18T20:58:49.612Z,42.80
2023-03-18T21:04:00.624Z,42.90
2023-03-18T21:09:07.627Z,43.00
2023-03-18T21:14:16.376Z,43.00
2023-03-18T21:19:22.953Z,43.00
2023-03-18T21:24:29.233Z,43.10
2023-03-18T21:29:32.951Z,43.70
2023-03-18T21:34:39.405Z,43.10
2023-03-18T21:39:44.166Z,43.10
2023-03-18T21:44:48.746Z,44.00
2023-03-18T21:49:54.045Z,43.60
2023-03-18T21:54:58.204Z,43.40
2023-03-18T22:00:03.653Z,43.40
2023-03-18T22:05:18.959Z,44.00
2023-03-18T22:10:24.108Z,43.70
2023-03-18T22:15:36.136Z,43.70
2023-03-18T22:20:41.801Z,43.80
2023-03-18T22:25:47.232Z,43.90
2023-03-18T22:30:52.499Z,44.10
2023-03-18T22:35:57.628Z,44.10
2023-03-18T22:41:02.292Z,44.40
2023-03-18T22:46:08.097Z,44.50
2023-03-18T22:51:24.437Z,44.70
2023-03-18T22:56:27.785Z,45.00
2023-03-18T23:01:32.161Z,44.80
2023-03-18T23:06:37.160Z,45.80
2023-03-18T23:11:40.572Z,45.10
2023-03-18T23:16:44.243Z,45.20
2023-03-18T23:21:49.118Z,45.30
2023-03-18T23:26:52.474Z,45.50
2023-03-18T23:31:55.794Z,45.50
2023-03-18T23:37:02.633Z,45.60
2023-03-18T23:42:06.728Z,45.80
2023-03-18T23:47:11.506Z,45.80
2023-03-18T23:52:16.864Z,46.00
2023-03-18T23:57:20.306Z,46.10
